sensor_id;sensor_type;location;lat;lon;timestamp;temperature;humidity
16521;DHT22;8373;48.110;11.522;2022-09-13T04:03:05;16.40;76.60
16521;DHT22;8373;48.110;11.522;2022-09-13T04:05:32;16.50;76.90
16521;DHT22;8373;48.110;11.522;2022-09-13T04:07:59;16.50;76.70
16521;DHT22;8373;48.110;11.522;2022-09-13T04:10:26;16.40;76.70
16521;DHT22;8373;48.110;11.522;2022-09-13T04:12:56;16.30;76.80
16521;DHT22;8373;48.110;11.522;2022-09-13T04:15:24;16.30;77.10
16521;DHT22;8373;48.110;11.522;2022-09-13T04:17:51;16.30;77.30
16521;DHT22;8373;48.110;11.522;2022-09-13T04:20:19;16.30;77.20
16521;DHT22;8373;48.110;11.522;2022-09-13T04:22:50;16.10;77.10
16521;DHT22;8373;48.110;11.522;2022-09-13T04:25:18;16.10;77.40
16521;DHT22;8373;48.110;11.522;2022-09-13T04:27:45;16.20;77.50
16521;DHT22;8373;48.110;11.522;2022-09-13T04:30:12;16.10;77.20
16521;DHT22;8373;48.110;11.522;2022-09-13T04:32:41;16.10;77.40
16521;DHT22;8373;48.110;11.522;2022-09-13T04:35:08;16.20;77.50
16521;DHT22;8373;48.110;11.522;2022-09-13T04:37:37;16.30;77.30
16521;DHT22;8373;48.110;11.522;2022-09-13T04:40:05;16.20;76.90
16521;DHT22;8373;48.110;11.522;2022-09-13T04:42:33;16.30;77.10
16521;DHT22;8373;48.110;11.522;2022-09-13T04:45:01;16.30;77.20
16521;DHT22;8373;48.110;11.522;2022-09-13T04:47:28;16.40;76.80
16521;DHT22;8373;48.110;11.522;2022-09-13T04:49:55;16.30;76.50
16521;DHT22;8373;48.110;11.522;2022-09-13T04:52:22;16.20;76.60
16521;DHT22;8373;48.110;11.522;2022-09-13T04:54:50;16.10;76.60
16521;DHT22;8373;48.110;11.522;2022-09-13T04:57:17;16.00;77.80
16521;DHT22;8373;48.110;11.522;2022-09-13T04:59:44;16.00;78.70
16521;DHT22;8373;48.110;11.522;2022-09-13T05:02:11;15.80;78.70
16521;DHT22;8373;48.110;11.522;2022-09-13T05:04:38;15.60;79.00
16521;DHT22;8373;48.110;11.522;2022-09-13T05:07:05;15.70;79.40
16521;DHT22;8373;48.110;11.522;2022-09-13T05:09:32;15.70;79.50
16521;DHT22;8373;48.110;11.522;2022-09-13T05:12:00;15.80;79.50
16521;DHT22;8373;48.110;11.522;2022-09-13T05:14:28;15.70;79.50
16521;DHT22;8373;48.110;11.522;2022-09-13T05:16:54;15.60;79.40
16521;DHT22;8373;48.110;11.522;2022-09-13T05:19:21;15.70;79.90
16521;DHT22;8373;48.110;11.522;2022-09-13T05:21:48;15.70;79.90
16521;DHT22;8373;48.110;11.522;2022-09-13T05:24:15;15.90;79.80
16521;DHT22;8373;48.110;11.522;2022-09-13T05:26:42;15.70;79.60
16521;DHT22;8373;48.110;11.522;2022-09-13T05:29:10;15.90;80.30
16521;DHT22;8373;48.110;11.522;2022-09-13T05:31:39;16.00;79.60
16521;DHT22;8373;48.110;11.522;2022-09-13T05:34:08;16.10;79.30
16521;DHT22;8373;48.110;11.522;2022-09-13T05:36:36;16.20;78.90
16521;DHT22;8373;48.110;11.522;2022-09-13T05:39:04;16.20;78.70
16521;DHT22;8373;48.110;11.522;2022-09-13T05:41:32;16.30;78.50
16521;DHT22;8373;48.110;11.522;2022-09-13T05:44:00;16.10;78.30
16521;DHT22;8373;48.110;11.522;2022-09-13T05:46:29;16.20;78.70
16521;DHT22;8373;48.110;11.522;2022-09-13T05:48:57;16.30;78.60
16521;DHT22;8373;48.110;11.522;2022-09-13T05:51:24;16.40;78.40
16521;DHT22;8373;48.110;11.522;2022-09-13T05:53:53;16.40;77.90
16521;DHT22;8373;48.110;11.522;2022-09-13T05:56:22;16.40;77.80
16521;DHT22;8373;48.110;11.522;2022-09-13T05:58:50;16.40;77.50
16521;DHT22;8373;48.110;11.522;2022-09-13T06:01:19;16.40;77.40
16521;DHT22;8373;48.110;11.522;2022-09-13T06:03:48;16.40;77.10
16521;DHT22;8373;48.110;11.522;2022-09-13T06:06:15;16.40;77.00
16521;DHT22;8373;48.110;11.522;2022-09-13T06:08:43;16.50;77.10
16521;DHT22;8373;48.110;11.522;2022-09-13T06:11:12;16.70;76.80
16521;DHT22;8373;48.110;11.522;2022-09-13T06:13:39;16.90;76.10
16521;DHT22;8373;48.110;11.522;2022-09-13T06:16:09;17.00;75.70
16521;DHT22;8373;48.110;11.522;2022-09-13T06:18:37;17.20;75.70
16521;DHT22;8373;48.110;11.522;2022-09-13T06:21:10;17.30;74.70
16521;DHT22;8373;48.110;11.522;2022-09-13T06:23:42;17.50;73.80
16521;DHT22;8373;48.110;11.522;2022-09-13T06:26:11;17.50;72.70
16521;DHT22;8373;48.110;11.522;2022-09-13T06:28:38;17.50;72.60
16521;DHT22;8373;48.110;11.522;2022-09-13T06:31:07;17.40;72.60
16521;DHT22;8373;48.110;11.522;2022-09-13T06:33:36;17.40;73.20
16521;DHT22;8373;48.110;11.522;2022-09-13T06:36:05;17.40;73.40
16521;DHT22;8373;48.110;11.522;2022-09-13T06:38:34;17.60;73.60
16521;DHT22;8373;48.110;11.522;2022-09-13T06:41:04;17.80;73.30
16521;DHT22;8373;48.110;11.522;2022-09-13T06:43:32;18.10;72.30
16521;DHT22;8373;48.110;11.522;2022-09-13T06:46:00;18.10;71.40
16521;DHT22;8373;48.110;11.522;2022-09-13T06:48:30;18.20;70.80
16521;DHT22;8373;48.110;11.522;2022-09-13T06:50:58;18.30;70.20
16521;DHT22;8373;48.110;11.522;2022-09-13T06:53:25;18.40;70.10
16521;DHT22;8373;48.110;11.522;2022-09-13T06:56:02;18.40;70.10
16521;DHT22;8373;48.110;11.522;2022-09-13T06:58:30;18.40;70.30
16521;DHT22;8373;48.110;11.522;2022-09-13T07:01:07;18.70;70.80
16521;DHT22;8373;48.110;11.522;2022-09-13T07:03:35;18.90;69.80
16521;DHT22;8373;48.110;11.522;2022-09-13T07:06:10;19.10;69.30
16521;DHT22;8373;48.110;11.522;2022-09-13T07:08:38;19.30;68.30
16521;DHT22;8373;48.110;11.522;2022-09-13T07:11:07;19.50;68.00
16521;DHT22;8373;48.110;11.522;2022-09-13T07:13:34;19.80;67.80
16521;DHT22;8373;48.110;11.522;2022-09-13T07:16:02;20.00;66.50
16521;DHT22;8373;48.110;11.522;2022-09-13T07:18:29;20.20;65.70
16521;DHT22;8373;48.110;11.522;2022-09-13T07:21:01;20.30;64.60
16521;DHT22;8373;48.110;11.522;2022-09-13T07:23:30;20.50;63.30
16521;DHT22;8373;48.110;11.522;2022-09-13T07:25:58;20.80;63.10
16521;DHT22;8373;48.110;11.522;2022-09-13T07:28:32;21.40;62.60
16521;DHT22;8373;48.110;11.522;2022-09-13T07:31:07;22.30;61.00
16521;DHT22;8373;48.110;11.522;2022-09-13T07:33:35;23.20;58.30
16521;DHT22;8373;48.110;11.522;2022-09-13T07:36:03;24.10;57.00
16521;DHT22;8373;48.110;11.522;2022-09-13T07:38:32;24.80;54.90
16521;DHT22;8373;48.110;11.522;2022-09-13T07:40:59;25.50;53.60
16521;DHT22;8373;48.110;11.522;2022-09-13T07:43:27;26.00;52.30
16521;DHT22;8373;48.110;11.522;2022-09-13T07:46:00;25.90;50.20
16521;DHT22;8373;48.110;11.522;2022-09-13T07:48:28;26.00;50.40
16521;DHT22;8373;48.110;11.522;2022-09-13T07:50:57;26.20;50.50
16521;DHT22;8373;48.110;11.522;2022-09-13T07:53:24;26.10;49.70
16521;DHT22;8373;48.110;11.522;2022-09-13T07:55:51;26.00;49.60
16521;DHT22;8373;48.110;11.522;2022-09-13T07:58:18;26.10;50.60
16521;DHT22;8373;48.110;11.522;2022-09-13T08:00:45;26.20;51.20
16521;DHT22;8373;48.110;11.522;2022-09-13T08:03:13;26.40;50.60
16521;DHT22;8373;48.110;11.522;2022-09-13T08:05:40;26.50;49.60
16521;DHT22;8373;48.110;11.522;2022-09-13T08:08:07;26.90;48.90
16521;DHT22;8373;48.110;11.522;2022-09-13T08:10:34;27.20;47.80
16521;DHT22;8373;48.110;11.522;2022-09-13T08:13:01;27.40;46.00
16521;DHT22;8373;48.110;11.522;2022-09-13T08:15:28;27.50;46.90
16521;DHT22;8373;48.110;11.522;2022-09-13T08:17:55;27.60;45.90
16521;DHT22;8373;48.110;11.522;2022-09-13T08:20:23;27.40;45.10
16521;DHT22;8373;48.110;11.522;2022-09-13T08:22:50;27.20;45.00
16521;DHT22;8373;48.110;11.522;2022-09-13T08:25:17;27.00;45.50
16521;DHT22;8373;48.110;11.522;2022-09-13T08:27:44;26.80;46.20
16521;DHT22;8373;48.110;11.522;2022-09-13T08:30:12;26.80;46.80
16521;DHT22;8373;48.110;11.522;2022-09-13T08:32:39;26.70;46.90
16521;DHT22;8373;48.110;11.522;2022-09-13T08:35:06;26.60;46.10
16521;DHT22;8373;48.110;11.522;2022-09-13T08:37:35;26.50;46.50
16521;DHT22;8373;48.110;11.522;2022-09-13T08:40:03;26.60;46.60
16521;DHT22;8373;48.110;11.522;2022-09-13T08:42:42;26.40;46.50
16521;DHT22;8373;48.110;11.522;2022-09-13T08:45:11;26.50;47.50
16521;DHT22;8373;48.110;11.522;2022-09-13T08:47:41;26.60;47.80
16521;DHT22;8373;48.110;11.522;2022-09-13T08:50:18;26.80;47.80
16521;DHT22;8373;48.110;11.522;2022-09-13T08:55:42;27.30;48.00
16521;DHT22;8373;48.110;11.522;2022-09-13T08:58:25;27.70;47.30
16521;DHT22;8373;48.110;11.522;2022-09-13T09:01:01;28.10;46.70
16521;DHT22;8373;48.110;11.522;2022-09-13T09:03:33;28.70;47.00
16521;DHT22;8373;48.110;11.522;2022-09-13T09:06:11;29.20;45.50
16521;DHT22;8373;48.110;11.522;2022-09-13T09:08:44;29.60;44.50
16521;DHT22;8373;48.110;11.522;2022-09-13T09:11:21;29.90;42.60
16521;DHT22;8373;48.110;11.522;2022-09-13T09:13:56;30.00;42.90
16521;DHT22;8373;48.110;11.522;2022-09-13T09:16:32;29.90;41.70
16521;DHT22;8373;48.110;11.522;2022-09-13T09:19:09;29.80;41.20
16521;DHT22;8373;48.110;11.522;2022-09-13T09:21:38;30.00;40.50
16521;DHT22;8373;48.110;11.522;2022-09-13T09:24:10;30.50;40.90
16521;DHT22;8373;48.110;11.522;2022-09-13T09:26:42;31.00;40.00
16521;DHT22;8373;48.110;11.522;2022-09-13T09:29:15;31.40;39.60
16521;DHT22;8373;48.110;11.522;2022-09-13T09:31:47;31.80;38.70
16521;DHT22;8373;48.110;11.522;2022-09-13T09:34:24;32.20;38.00
16521;DHT22;8373;48.110;11.522;2022-09-13T09:37:01;32.50;36.30
16521;DHT22;8373;48.110;11.522;2022-09-13T09:39:31;32.50;35.50
16521;DHT22;8373;48.110;11.522;2022-09-13T09:42:04;32.80;35.60
16521;DHT22;8373;48.110;11.522;2022-09-13T09:44:33;33.10;34.80
16521;DHT22;8373;48.110;11.522;2022-09-13T09:47:03;33.60;34.30
16521;DHT22;8373;48.110;11.522;2022-09-13T09:49:36;34.00;34.00
16521;DHT22;8373;48.110;11.522;2022-09-13T09:52:27;34.30;32.80
16521;DHT22;8373;48.110;11.522;2022-09-13T09:55:00;34.70;32.20
16521;DHT22;8373;48.110;11.522;2022-09-13T09:57:50;35.30;31.90
16521;DHT22;8373;48.110;11.522;2022-09-13T10:00:20;35.90;30.40
16521;DHT22;8373;48.110;11.522;2022-09-13T10:02:50;36.90;29.80
16521;DHT22;8373;48.110;11.522;2022-09-13T10:05:18;37.80;28.70
16521;DHT22;8373;48.110;11.522;2022-09-13T10:07:55;38.40;28.40
16521;DHT22;8373;48.110;11.522;2022-09-13T10:10:28;39.30;27.80
16521;DHT22;8373;48.110;11.522;2022-09-13T10:12:59;39.40;27.00
16521;DHT22;8373;48.110;11.522;2022-09-13T10:15:28;39.10;27.20
16521;DHT22;8373;48.110;11.522;2022-09-13T10:18:13;38.20;27.60
16521;DHT22;8373;48.110;11.522;2022-09-13T10:20:41;37.30;27.90
16521;DHT22;8373;48.110;11.522;2022-09-13T10:23:20;36.60;28.90
16521;DHT22;8373;48.110;11.522;2022-09-13T10:26:03;36.30;29.80
16521;DHT22;8373;48.110;11.522;2022-09-13T10:28:32;36.20;29.90
16521;DHT22;8373;48.110;11.522;2022-09-13T10:31:03;36.40;29.80
16521;DHT22;8373;48.110;11.522;2022-09-13T10:33:34;37.70;29.30
16521;DHT22;8373;48.110;11.522;2022-09-13T10:36:07;39.30;28.30
16521;DHT22;8373;48.110;11.522;2022-09-13T10:38:39;40.40;25.80
16521;DHT22;8373;48.110;11.522;2022-09-13T10:41:10;41.40;25.40
16521;DHT22;8373;48.110;11.522;2022-09-13T10:43:46;42.20;24.80
16521;DHT22;8373;48.110;11.522;2022-09-13T10:46:21;42.70;24.70
16521;DHT22;8373;48.110;11.522;2022-09-13T10:48:49;43.10;23.90
16521;DHT22;8373;48.110;11.522;2022-09-13T10:51:30;43.40;23.50
16521;DHT22;8373;48.110;11.522;2022-09-13T10:54:09;43.50;23.00
16521;DHT22;8373;48.110;11.522;2022-09-13T10:56:42;43.80;23.10
16521;DHT22;8373;48.110;11.522;2022-09-13T10:59:15;43.30;22.30
16521;DHT22;8373;48.110;11.522;2022-09-13T11:01:45;43.70;22.90
16521;DHT22;8373;48.110;11.522;2022-09-13T11:07:34;43.90;23.00
16521;DHT22;8373;48.110;11.522;2022-09-13T11:10:11;43.20;22.00
16521;DHT22;8373;48.110;11.522;2022-09-13T11:12:47;43.20;22.20
16521;DHT22;8373;48.110;11.522;2022-09-13T11:15:27;42.60;22.20
16521;DHT22;8373;48.110;11.522;2022-09-13T11:20:47;43.10;23.40
16521;DHT22;8373;48.110;11.522;2022-09-13T11:23:42;42.30;23.50
16521;DHT22;8373;48.110;11.522;2022-09-13T11:26:23;41.30;24.20
16521;DHT22;8373;48.110;11.522;2022-09-13T11:28:57;40.40;25.30
16521;DHT22;8373;48.110;11.522;2022-09-13T11:31:37;39.70;25.60
16521;DHT22;8373;48.110;11.522;2022-09-13T11:34:23;39.20;25.90
16521;DHT22;8373;48.110;11.522;2022-09-13T11:37:07;38.50;26.10
16521;DHT22;8373;48.110;11.522;2022-09-13T11:39:37;38.00;26.00
16521;DHT22;8373;48.110;11.522;2022-09-13T11:42:17;37.70;27.50
16521;DHT22;8373;48.110;11.522;2022-09-13T11:45:01;37.40;27.30
16521;DHT22;8373;48.110;11.522;2022-09-13T11:47:40;36.60;26.80
16521;DHT22;8373;48.110;11.522;2022-09-13T11:50:24;35.70;27.90
16521;DHT22;8373;48.110;11.522;2022-09-13T11:53:09;35.20;29.70
16521;DHT22;8373;48.110;11.522;2022-09-13T11:55:40;34.70;30.00
16521;DHT22;8373;48.110;11.522;2022-09-13T11:58:12;34.40;30.70
16521;DHT22;8373;48.110;11.522;2022-09-13T12:00:45;34.20;31.50
16521;DHT22;8373;48.110;11.522;2022-09-13T12:03:17;33.90;32.30
16521;DHT22;8373;48.110;11.522;2022-09-13T12:05:51;33.80;32.10
16521;DHT22;8373;48.110;11.522;2022-09-13T12:08:21;33.60;32.60
16521;DHT22;8373;48.110;11.522;2022-09-13T12:10:52;33.50;32.90
16521;DHT22;8373;48.110;11.522;2022-09-13T12:13:22;33.20;32.90
16521;DHT22;8373;48.110;11.522;2022-09-13T12:15:54;33.10;33.50
16521;DHT22;8373;48.110;11.522;2022-09-13T12:18:26;33.60;34.40
16521;DHT22;8373;48.110;11.522;2022-09-13T12:20:57;34.60;32.40
16521;DHT22;8373;48.110;11.522;2022-09-13T12:23:29;36.20;30.80
16521;DHT22;8373;48.110;11.522;2022-09-13T12:26:00;38.60;28.50
16521;DHT22;8373;48.110;11.522;2022-09-13T12:28:33;40.70;26.60
16521;DHT22;8373;48.110;11.522;2022-09-13T12:31:09;42.70;23.90
16521;DHT22;8373;48.110;11.522;2022-09-13T12:33:38;44.30;22.40
16521;DHT22;8373;48.110;11.522;2022-09-13T12:39:21;45.10;19.70
16521;DHT22;8373;48.110;11.522;2022-09-13T12:42:10;45.60;19.90
16521;DHT22;8373;48.110;11.522;2022-09-13T12:45:01;46.00;20.20
16521;DHT22;8373;48.110;11.522;2022-09-13T12:47:58;45.70;20.20
16521;DHT22;8373;48.110;11.522;2022-09-13T12:50:45;44.60;20.20
16521;DHT22;8373;48.110;11.522;2022-09-13T12:56:28;41.70;22.50
16521;DHT22;8373;48.110;11.522;2022-09-13T12:59:19;40.40;23.60
16521;DHT22;8373;48.110;11.522;2022-09-13T13:01:50;39.40;24.60
16521;DHT22;8373;48.110;11.522;2022-09-13T13:04:21;38.40;25.70
16521;DHT22;8373;48.110;11.522;2022-09-13T13:06:51;37.50;27.40
16521;DHT22;8373;48.110;11.522;2022-09-13T13:09:22;36.80;27.80
16521;DHT22;8373;48.110;11.522;2022-09-13T13:11:53;36.50;28.00
16521;DHT22;8373;48.110;11.522;2022-09-13T13:17:38;36.10;28.30
16521;DHT22;8373;48.110;11.522;2022-09-13T13:23:24;35.50;28.60
16521;DHT22;8373;48.110;11.522;2022-09-13T13:29:16;35.30;28.80
16521;DHT22;8373;48.110;11.522;2022-09-13T13:32:09;35.20;28.80
16521;DHT22;8373;48.110;11.522;2022-09-13T13:34:42;35.20;29.10
16521;DHT22;8373;48.110;11.522;2022-09-13T13:37:32;35.30;29.10
16521;DHT22;8373;48.110;11.522;2022-09-13T13:40:26;35.20;28.70
16521;DHT22;8373;48.110;11.522;2022-09-13T13:43:27;35.20;28.60
16521;DHT22;8373;48.110;11.522;2022-09-13T13:49:40;35.20;28.30
16521;DHT22;8373;48.110;11.522;2022-09-13T13:52:36;35.00;28.60
16521;DHT22;8373;48.110;11.522;2022-09-13T13:55:36;34.70;29.50
16521;DHT22;8373;48.110;11.522;2022-09-13T13:58:11;34.50;29.60
16521;DHT22;8373;48.110;11.522;2022-09-13T14:00:47;34.10;30.20
16521;DHT22;8373;48.110;11.522;2022-09-13T14:03:23;33.80;30.60
16521;DHT22;8373;48.110;11.522;2022-09-13T14:05:55;33.50;31.00
16521;DHT22;8373;48.110;11.522;2022-09-13T14:08:34;33.40;31.50
16521;DHT22;8373;48.110;11.522;2022-09-13T14:11:14;33.20;31.10
16521;DHT22;8373;48.110;11.522;2022-09-13T14:13:54;32.90;32.00
16521;DHT22;8373;48.110;11.522;2022-09-13T14:16:37;32.60;32.80
16521;DHT22;8373;48.110;11.522;2022-09-13T14:19:21;32.20;31.50
16521;DHT22;8373;48.110;11.522;2022-09-13T14:22:04;31.90;32.80
16521;DHT22;8373;48.110;11.522;2022-09-13T14:24:35;31.70;33.20
16521;DHT22;8373;48.110;11.522;2022-09-13T14:27:04;31.40;33.70
16521;DHT22;8373;48.110;11.522;2022-09-13T14:29:31;31.20;34.20
16521;DHT22;8373;48.110;11.522;2022-09-13T14:32:04;31.10;35.70
16521;DHT22;8373;48.110;11.522;2022-09-13T14:34:34;31.10;36.20
16521;DHT22;8373;48.110;11.522;2022-09-13T14:37:04;31.10;36.40
16521;DHT22;8373;48.110;11.522;2022-09-13T14:39:32;31.20;36.60
16521;DHT22;8373;48.110;11.522;2022-09-13T14:42:01;31.10;36.10
16521;DHT22;8373;48.110;11.522;2022-09-13T14:44:29;31.00;36.30
16521;DHT22;8373;48.110;11.522;2022-09-13T14:47:02;30.90;36.20
16521;DHT22;8373;48.110;11.522;2022-09-13T14:49:34;30.70;36.30
16521;DHT22;8373;48.110;11.522;2022-09-13T14:52:03;30.60;36.70
16521;DHT22;8373;48.110;11.522;2022-09-13T14:54:35;30.60;37.30
16521;DHT22;8373;48.110;11.522;2022-09-13T14:57:06;30.60;36.80
16521;DHT22;8373;48.110;11.522;2022-09-13T14:59:41;30.50;36.50
16521;DHT22;8373;48.110;11.522;2022-09-13T15:02:17;30.30;36.80
16521;DHT22;8373;48.110;11.522;2022-09-13T15:04:49;30.20;37.80
16521;DHT22;8373;48.110;11.522;2022-09-13T15:07:21;30.00;38.00
16521;DHT22;8373;48.110;11.522;2022-09-13T15:09:54;29.70;37.70
16521;DHT22;8373;48.110;11.522;2022-09-13T15:12:25;29.50;38.20
16521;DHT22;8373;48.110;11.522;2022-09-13T15:15:23;29.40;39.00
16521;DHT22;8373;48.110;11.522;2022-09-13T15:17:56;29.30;39.00
16521;DHT22;8373;48.110;11.522;2022-09-13T15:20:24;29.20;39.30
16521;DHT22;8373;48.110;11.522;2022-09-13T15:22:52;29.10;39.80
16521;DHT22;8373;48.110;11.522;2022-09-13T15:25:23;28.90;39.40
16521;DHT22;8373;48.110;11.522;2022-09-13T15:27:58;28.90;39.70
16521;DHT22;8373;48.110;11.522;2022-09-13T15:30:29;28.80;40.00
16521;DHT22;8373;48.110;11.522;2022-09-13T15:33:16;28.80;40.50
16521;DHT22;8373;48.110;11.522;2022-09-13T15:35:45;28.70;41.10
16521;DHT22;8373;48.110;11.522;2022-09-13T15:38:31;28.80;41.30
16521;DHT22;8373;48.110;11.522;2022-09-13T15:41:01;28.70;41.80
16521;DHT22;8373;48.110;11.522;2022-09-13T15:43:29;28.60;42.30
16521;DHT22;8373;48.110;11.522;2022-09-13T15:45:58;28.40;42.70
16521;DHT22;8373;48.110;11.522;2022-09-13T15:48:29;28.20;42.80
16521;DHT22;8373;48.110;11.522;2022-09-13T15:51:08;28.00;42.50
16521;DHT22;8373;48.110;11.522;2022-09-13T15:53:37;27.90;42.70
16521;DHT22;8373;48.110;11.522;2022-09-13T15:56:05;27.70;43.60
16521;DHT22;8373;48.110;11.522;2022-09-13T15:58:35;27.70;44.00
16521;DHT22;8373;48.110;11.522;2022-09-13T16:01:04;27.50;44.30
16521;DHT22;8373;48.110;11.522;2022-09-13T16:03:31;27.40;44.00
16521;DHT22;8373;48.110;11.522;2022-09-13T16:05:59;27.40;44.30
16521;DHT22;8373;48.110;11.522;2022-09-13T16:08:26;27.30;44.40
16521;DHT22;8373;48.110;11.522;2022-09-13T16:10:53;27.20;44.40
16521;DHT22;8373;48.110;11.522;2022-09-13T16:13:20;27.10;44.50
16521;DHT22;8373;48.110;11.522;2022-09-13T16:15:48;27.10;44.80
16521;DHT22;8373;48.110;11.522;2022-09-13T16:18:16;27.00;44.90
16521;DHT22;8373;48.110;11.522;2022-09-13T16:20:44;26.90;45.30
16521;DHT22;8373;48.110;11.522;2022-09-13T16:23:11;26.90;45.60
16521;DHT22;8373;48.110;11.522;2022-09-13T16:25:38;26.90;45.90
16521;DHT22;8373;48.110;11.522;2022-09-13T16:28:05;26.90;45.80
16521;DHT22;8373;48.110;11.522;2022-09-13T16:30:33;26.90;45.60
16521;DHT22;8373;48.110;11.522;2022-09-13T16:33:01;26.90;45.70
16521;DHT22;8373;48.110;11.522;2022-09-13T16:35:31;26.90;45.80
16521;DHT22;8373;48.110;11.522;2022-09-13T16:37:58;26.90;46.50
16521;DHT22;8373;48.110;11.522;2022-09-13T16:40:26;26.80;46.60
16521;DHT22;8373;48.110;11.522;2022-09-13T16:42:53;26.70;46.60
16521;DHT22;8373;48.110;11.522;2022-09-13T16:45:20;26.70;46.80
16521;DHT22;8373;48.110;11.522;2022-09-13T16:47:47;26.60;46.80
16521;DHT22;8373;48.110;11.522;2022-09-13T16:50:16;26.60;46.80
16521;DHT22;8373;48.110;11.522;2022-09-13T16:52:44;26.50;46.90
16521;DHT22;8373;48.110;11.522;2022-09-13T16:55:12;26.50;46.10
16521;DHT22;8373;48.110;11.522;2022-09-13T16:57:38;26.50;46.50
16521;DHT22;8373;48.110;11.522;2022-09-13T17:00:07;26.50;47.00
16521;DHT22;8373;48.110;11.522;2022-09-13T17:02:36;26.50;47.20
16521;DHT22;8373;48.110;11.522;2022-09-13T17:05:03;26.40;47.40
16521;DHT22;8373;48.110;11.522;2022-09-13T17:07:33;26.40;47.80
16521;DHT22;8373;48.110;11.522;2022-09-13T17:10:03;26.40;48.10
16521;DHT22;8373;48.110;11.522;2022-09-13T17:12:32;26.30;48.40
16521;DHT22;8373;48.110;11.522;2022-09-13T17:15:00;26.30;48.40
16521;DHT22;8373;48.110;11.522;2022-09-13T17:17:27;26.20;48.60
16521;DHT22;8373;48.110;11.522;2022-09-13T17:19:58;26.20;48.80
16521;DHT22;8373;48.110;11.522;2022-09-13T17:22:25;26.10;49.20
16521;DHT22;8373;48.110;11.522;2022-09-13T17:24:52;26.10;49.20
16521;DHT22;8373;48.110;11.522;2022-09-13T17:27:21;26.10;49.50
16521;DHT22;8373;48.110;11.522;2022-09-13T17:29:48;26.10;49.80
16521;DHT22;8373;48.110;11.522;2022-09-13T17:32:15;26.00;50.10
16521;DHT22;8373;48.110;11.522;2022-09-13T17:34:42;26.00;49.90
16521;DHT22;8373;48.110;11.522;2022-09-13T17:37:09;25.90;50.00
16521;DHT22;8373;48.110;11.522;2022-09-13T17:39:36;25.90;50.30
16521;DHT22;8373;48.110;11.522;2022-09-13T17:42:03;25.80;50.50
16521;DHT22;8373;48.110;11.522;2022-09-13T17:44:33;25.70;50.70
16521;DHT22;8373;48.110;11.522;2022-09-13T17:47:01;25.70;50.90
16521;DHT22;8373;48.110;11.522;2022-09-13T17:49:30;25.70;51.00
16521;DHT22;8373;48.110;11.522;2022-09-13T17:51:57;25.60;51.10
16521;DHT22;8373;48.110;11.522;2022-09-13T17:54:24;25.50;51.10
16521;DHT22;8373;48.110;11.522;2022-09-13T17:56:51;25.50;51.40
16521;DHT22;8373;48.110;11.522;2022-09-13T17:59:20;25.40;51.60
16521;DHT22;8373;48.110;11.522;2022-09-13T18:01:50;25.40;52.10
16521;DHT22;8373;48.110;11.522;2022-09-13T18:04:20;25.40;52.30
16521;DHT22;8373;48.110;11.522;2022-09-13T18:06:51;25.30;52.50
16521;DHT22;8373;48.110;11.522;2022-09-13T18:09:19;25.20;52.80
16521;DHT22;8373;48.110;11.522;2022-09-13T18:11:48;25.20;53.00
16521;DHT22;8373;48.110;11.522;2022-09-13T18:14:16;25.20;53.20
16521;DHT22;8373;48.110;11.522;2022-09-13T18:16:44;25.20;53.40
16521;DHT22;8373;48.110;11.522;2022-09-13T18:19:18;25.20;53.60
16521;DHT22;8373;48.110;11.522;2022-09-13T18:21:45;25.20;53.60
16521;DHT22;8373;48.110;11.522;2022-09-13T18:24:12;25.10;53.60
16521;DHT22;8373;48.110;11.522;2022-09-13T18:26:39;25.10;53.80
16521;DHT22;8373;48.110;11.522;2022-09-13T18:29:09;25.10;53.90
16521;DHT22;8373;48.110;11.522;2022-09-13T18:31:37;25.10;54.40
16521;DHT22;8373;48.110;11.522;2022-09-13T18:34:06;25.00;54.70
16521;DHT22;8373;48.110;11.522;2022-09-13T18:36:35;25.00;55.30
16521;DHT22;8373;48.110;11.522;2022-09-13T18:39:03;25.00;55.30
16521;DHT22;8373;48.110;11.522;2022-09-13T18:41:32;25.00;55.00
16521;DHT22;8373;48.110;11.522;2022-09-13T18:44:00;25.00;55.20
16521;DHT22;8373;48.110;11.522;2022-09-13T18:46:28;24.90;55.60
16521;DHT22;8373;48.110;11.522;2022-09-13T18:48:56;24.90;55.50
16521;DHT22;8373;48.110;11.522;2022-09-13T18:51:25;24.90;55.80
16521;DHT22;8373;48.110;11.522;2022-09-13T18:53:54;24.90;56.00
16521;DHT22;8373;48.110;11.522;2022-09-13T18:56:23;24.90;56.10
16521;DHT22;8373;48.110;11.522;2022-09-13T18:58:51;24.90;56.10
16521;DHT22;8373;48.110;11.522;2022-09-13T19:01:22;24.80;55.90
16521;DHT22;8373;48.110;11.522;2022-09-13T19:03:50;24.80;56.40
16521;DHT22;8373;48.110;11.522;2022-09-13T19:06:19;24.80;56.50
16521;DHT22;8373;48.110;11.522;2022-09-13T19:08:48;24.70;56.50
16521;DHT22;8373;48.110;11.522;2022-09-13T19:11:18;24.70;56.60
16521;DHT22;8373;48.110;11.522;2022-09-13T19:13:45;24.60;57.00
16521;DHT22;8373;48.110;11.522;2022-09-13T19:16:14;24.40;57.20
16521;DHT22;8373;48.110;11.522;2022-09-13T19:18:42;24.30;57.50
16521;DHT22;8373;48.110;11.522;2022-09-13T19:21:11;24.20;57.90
16521;DHT22;8373;48.110;11.522;2022-09-13T19:23:40;24.10;58.30
16521;DHT22;8373;48.110;11.522;2022-09-13T19:26:09;24.10;58.60
16521;DHT22;8373;48.110;11.522;2022-09-13T19:28:39;24.00;58.90
16521;DHT22;8373;48.110;11.522;2022-09-13T19:31:08;23.90;59.20
16521;DHT22;8373;48.110;11.522;2022-09-13T19:33:37;23.90;59.50
16521;DHT22;8373;48.110;11.522;2022-09-13T19:36:07;23.90;59.80
16521;DHT22;8373;48.110;11.522;2022-09-13T19:38:35;23.90;59.90
16521;DHT22;8373;48.110;11.522;2022-09-13T19:41:04;23.90;60.10
16521;DHT22;8373;48.110;11.522;2022-09-13T19:43:33;23.80;60.30
16521;DHT22;8373;48.110;11.522;2022-09-13T19:46:04;23.80;60.70
16521;DHT22;8373;48.110;11.522;2022-09-13T19:48:31;23.70;61.00
16521;DHT22;8373;48.110;11.522;2022-09-13T19:51:04;23.60;61.30
16521;DHT22;8373;48.110;11.522;2022-09-13T19:53:31;23.50;61.60
16521;DHT22;8373;48.110;11.522;2022-09-13T19:55:58;23.50;61.90
16521;DHT22;8373;48.110;11.522;2022-09-13T19:58:25;23.50;62.10
16521;DHT22;8373;48.110;11.522;2022-09-13T20:01:02;23.50;62.20
16521;DHT22;8373;48.110;11.522;2022-09-13T20:03:30;23.50;62.40
16521;DHT22;8373;48.110;11.522;2022-09-13T20:06:00;23.40;62.60
16521;DHT22;8373;48.110;11.522;2022-09-13T20:08:28;23.40;62.90
16521;DHT22;8373;48.110;11.522;2022-09-13T20:10:56;23.40;62.90
16521;DHT22;8373;48.110;11.522;2022-09-13T20:13:23;23.40;63.00
16521;DHT22;8373;48.110;11.522;2022-09-13T20:15:50;23.40;63.30
16521;DHT22;8373;48.110;11.522;2022-09-13T20:18:19;23.30;63.50
16521;DHT22;8373;48.110;11.522;2022-09-13T20:20:46;23.30;63.50
16521;DHT22;8373;48.110;11.522;2022-09-13T20:23:15;23.30;63.80
16521;DHT22;8373;48.110;11.522;2022-09-13T20:25:42;23.30;64.10